createdAt,value
2023-02-25T00:00:19.892Z,2.70
2023-02-25T00:02:52.629Z,3.00
2023-02-25T00:05:26.335Z,2.60
2023-02-25T00:07:58.311Z,2.90
2023-02-25T00:10:30.368Z,2.50
2023-02-25T00:13:17.887Z,2.10
2023-02-25T00:15:50.496Z,2.37
2023-02-25T00:18:22.516Z,1.83
2023-02-25T00:20:54.982Z,2.20
2023-02-25T00:23:28.579Z,2.30
2023-02-25T00:26:09.038Z,2.30
2023-02-25T00:28:41.684Z,2.00
2023-02-25T00:31:22.005Z,2.33
2023-02-25T00:33:54.242Z,2.37
2023-02-25T00:36:27.641Z,1.90
2023-02-25T00:38:59.823Z,2.30
2023-02-25T00:41:31.844Z,1.93
2023-02-25T00:44:04.675Z,2.40
2023-02-25T00:46:36.737Z,1.97
2023-02-25T00:49:08.720Z,2.10
2023-02-25T00:51:40.675Z,2.10
2023-02-25T00:54:13.079Z,2.00
2023-02-25T00:56:45.002Z,2.03
2023-02-25T00:59:17.166Z,2.67
2023-02-25T01:01:49.195Z,2.30
2023-02-25T01:04:21.402Z,2.60
2023-02-25T01:06:54.560Z,2.30
2023-02-25T01:09:26.711Z,2.60
2023-02-25T01:11:58.612Z,2.40
2023-02-25T01:14:31.657Z,2.47
2023-02-25T01:17:03.642Z,2.43
2023-02-25T01:19:35.604Z,2.37
2023-02-25T01:22:07.861Z,3.07
2023-02-25T01:24:39.903Z,2.30
2023-02-25T01:27:11.914Z,2.23
2023-02-25T01:29:43.997Z,2.60
2023-02-25T01:32:16.149Z,2.90
2023-02-25T01:34:48.156Z,2.50
2023-02-25T01:37:20.120Z,2.30
2023-02-25T01:39:52.150Z,3.10
2023-02-25T01:42:24.322Z,2.70
2023-02-25T01:45:32.765Z,3.30
2023-02-25T01:48:18.790Z,2.67
2023-02-25T01:50:58.167Z,2.30
2023-02-25T01:53:50.417Z,2.90
2023-02-25T01:56:26.710Z,3.00
2023-02-25T01:59:00.118Z,2.73
2023-02-25T02:01:36.729Z,2.73
2023-02-25T02:04:13.000Z,2.83
2023-02-25T02:06:48.116Z,2.63
2023-02-25T02:09:26.432Z,2.70
2023-02-25T02:12:05.430Z,3.23
2023-02-25T02:14:42.290Z,2.87
2023-02-25T02:17:32.400Z,2.83
2023-02-25T02:20:13.152Z,2.70
2023-02-25T02:22:49.726Z,3.07
2023-02-25T02:25:36.490Z,2.67
2023-02-25T02:28:39.548Z,3.20
2023-02-25T02:31:33.369Z,2.33
2023-02-25T02:34:46.173Z,3.00
2023-02-25T02:37:26.934Z,3.10
2023-02-25T02:40:41.940Z,3.00
2023-02-25T02:43:34.033Z,3.47
2023-02-25T02:46:35.298Z,2.80
2023-02-25T02:49:20.706Z,2.60
2023-02-25T02:52:03.679Z,2.77
2023-02-25T02:54:43.341Z,3.10
2023-02-25T02:57:18.622Z,2.90
2023-02-25T02:59:58.465Z,2.33
2023-02-25T03:02:38.649Z,2.60
2023-02-25T03:05:19.273Z,2.70
2023-02-25T03:08:10.281Z,2.87
2023-02-25T03:10:42.854Z,2.50
2023-02-25T03:13:16.481Z,3.07
2023-02-25T03:15:51.867Z,2.50
2023-02-25T03:18:39.211Z,2.67
2023-02-25T03:21:21.677Z,2.93
2023-02-25T03:23:55.054Z,2.93
2023-02-25T03:26:33.701Z,2.90
2023-02-25T03:29:05.894Z,3.07
2023-02-25T03:31:50.262Z,2.53
2023-02-25T03:34:33.548Z,2.83
2023-02-25T03:37:23.544Z,3.23
2023-02-25T03:40:01.060Z,2.83
2023-02-25T03:42:36.575Z,3.23
2023-02-25T03:45:13.421Z,3.13
2023-02-25T03:47:46.071Z,3.13
2023-02-25T03:50:33.350Z,3.43
2023-02-25T03:53:05.841Z,3.07
2023-02-25T03:55:37.797Z,3.27
2023-02-25T03:58:10.235Z,3.00
2023-02-25T04:00:46.961Z,2.93
2023-02-25T04:03:19.177Z,2.47
2023-02-25T04:05:51.140Z,3.20
2023-02-25T04:08:23.130Z,2.53
2023-02-25T04:10:55.294Z,2.80
2023-02-25T04:13:27.170Z,2.57
2023-02-25T04:15:59.271Z,2.87
2023-02-25T04:18:31.291Z,3.00
2023-02-25T04:21:06.375Z,3.07
2023-02-25T04:23:38.353Z,2.67
2023-02-25T04:26:10.310Z,2.97
2023-02-25T04:28:42.232Z,2.73
2023-02-25T04:31:14.316Z,2.93
2023-02-25T04:33:49.999Z,3.23
2023-02-25T04:36:34.453Z,2.60
2023-02-25T04:39:06.506Z,2.90
2023-02-25T04:41:38.848Z,3.30
2023-02-25T04:44:11.338Z,3.03
2023-02-25T04:46:43.618Z,3.23
2023-02-25T04:49:15.536Z,3.23
2023-02-25T04:51:49.556Z,2.57
2023-02-25T04:54:21.949Z,3.30
2023-02-25T04:56:53.880Z,3.33
2023-02-25T04:59:26.713Z,3.37
2023-02-25T05:01:58.727Z,3.70
2023-02-25T05:04:30.796Z,2.70
2023-02-25T05:07:04.348Z,2.63
2023-02-25T05:09:36.409Z,3.03
2023-02-25T05:12:08.540Z,3.40
2023-02-25T05:14:40.513Z,3.07
2023-02-25T05:17:13.342Z,3.03
2023-02-25T05:19:45.268Z,3.23
2023-02-25T05:22:17.386Z,3.43
2023-02-25T05:24:49.288Z,2.93
2023-02-25T05:27:21.365Z,3.57
2023-02-25T05:29:54.704Z,3.03
2023-02-25T05:32:26.916Z,3.30
2023-02-25T05:34:59.087Z,3.00
2023-02-25T05:37:32.429Z,4.07
2023-02-25T05:40:05.280Z,3.47
2023-02-25T05:42:37.874Z,3.43
2023-02-25T05:45:11.378Z,3.27
2023-02-25T05:47:44.039Z,3.23
2023-02-25T05:50:18.844Z,3.90
2023-02-25T05:52:50.781Z,3.37
2023-02-25T05:55:23.632Z,3.17
2023-02-25T05:57:55.584Z,2.70
2023-02-25T06:00:27.958Z,2.77
2023-02-25T06:03:00.064Z,2.70
2023-02-25T06:05:32.653Z,2.70
2023-02-25T06:08:04.801Z,2.70
2023-02-25T06:10:38.382Z,3.10
2023-02-25T06:13:12.100Z,3.23
2023-02-25T06:15:44.013Z,2.80
2023-02-25T06:18:15.932Z,3.10
2023-02-25T06:20:47.859Z,2.60
2023-02-25T06:23:19.894Z,2.63
2023-02-25T06:25:51.821Z,3.03
2023-02-25T06:28:24.056Z,2.40
2023-02-25T06:30:55.982Z,2.60
2023-02-25T06:33:31.621Z,2.77
2023-02-25T06:36:05.244Z,2.80
2023-02-25T06:38:37.599Z,2.40
2023-02-25T06:41:15.705Z,3.17
2023-02-25T06:43:52.237Z,2.57
2023-02-25T06:46:26.822Z,2.90
2023-02-25T06:48:59.073Z,2.90
2023-02-25T06:51:31.006Z,2.60
2023-02-25T06:54:04.631Z,3.10
2023-02-25T06:56:36.588Z,2.67
2023-02-25T06:59:08.873Z,2.70
2023-02-25T07:01:41.782Z,2.60
2023-02-25T07:04:19.373Z,2.40
2023-02-25T07:06:51.435Z,3.03
2023-02-25T07:09:23.416Z,2.53
2023-02-25T07:11:55.403Z,2.47
2023-02-25T07:14:27.354Z,2.67
2023-02-25T07:16:59.308Z,2.47
2023-02-25T07:19:31.357Z,2.60
2023-02-25T07:22:05.441Z,3.20
2023-02-25T07:24:37.761Z,2.90
2023-02-25T07:27:12.047Z,2.97
2023-02-25T07:29:44.016Z,2.80
2023-02-25T07:32:16.134Z,2.43
2023-02-25T07:34:48.330Z,3.20
2023-02-25T07:37:20.333Z,2.40
2023-02-25T07:39:52.354Z,3.00
2023-02-25T07:42:24.282Z,2.67
2023-02-25T07:44:56.251Z,2.60
2023-02-25T07:47:28.263Z,2.80
2023-02-25T07:50:00.237Z,2.77
2023-02-25T07:52:32.453Z,3.10
2023-02-25T07:55:06.179Z,2.80
2023-02-25T07:57:38.150Z,3.10
2023-02-25T08:00:11.068Z,3.10
2023-02-25T08:02:44.808Z,3.37
2023-02-25T08:05:21.888Z,3.20
2023-02-25T08:07:53.895Z,2.80
2023-02-25T08:10:25.866Z,3.33
2023-02-25T08:12:57.969Z,2.93
2023-02-25T08:15:29.904Z,3.30
2023-02-25T08:18:01.853Z,3.33
2023-02-25T08:20:33.792Z,3.00
2023-02-25T08:23:06.431Z,3.00
2023-02-25T08:25:38.361Z,3.00
2023-02-25T08:28:10.421Z,3.13
2023-02-25T08:30:42.431Z,3.63
2023-02-25T08:33:14.671Z,2.83
2023-02-25T08:35:46.707Z,2.73
2023-02-25T08:38:18.943Z,3.70
2023-02-25T08:40:50.976Z,3.27
2023-02-25T08:43:22.897Z,3.93
2023-02-25T08:45:56.719Z,3.63
2023-02-25T08:48:28.847Z,3.27
2023-02-25T08:51:09.461Z,3.27
2023-02-25T08:53:41.734Z,3.00
2023-02-25T08:56:16.484Z,3.53
2023-02-25T08:58:48.375Z,3.30
2023-02-25T09:01:20.999Z,3.80
2023-02-25T09:03:53.774Z,3.90
2023-02-25T09:06:28.210Z,3.40
2023-02-25T09:09:00.182Z,3.83
2023-02-25T09:11:33.307Z,3.97
2023-02-25T09:14:05.573Z,3.67
2023-02-25T09:16:38.289Z,4.00
2023-02-25T09:19:12.552Z,3.37
2023-02-25T09:21:48.250Z,3.20
2023-02-25T09:24:20.618Z,3.27
2023-02-25T09:26:52.622Z,4.10
2023-02-25T09:29:24.579Z,3.43
2023-02-25T09:31:56.688Z,3.73
2023-02-25T09:34:28.834Z,3.30
2023-02-25T09:37:04.452Z,3.30
2023-02-25T09:39:36.434Z,3.90
2023-02-25T09:42:22.314Z,3.13
2023-02-25T09:45:01.816Z,3.40
2023-02-25T09:47:52.294Z,4.03
2023-02-25T09:50:35.352Z,2.97
2023-02-25T09:53:13.327Z,2.97
2023-02-25T09:55:51.739Z,3.30
2023-02-25T09:58:50.725Z,3.20
2023-02-25T10:01:51.147Z,3.37
2023-02-25T10:04:40.292Z,3.40
2023-02-25T10:07:26.735Z,3.07
2023-02-25T10:10:07.604Z,3.27
2023-02-25T10:13:23.185Z,3.73
2023-02-25T10:16:11.415Z,3.50
2023-02-25T10:18:55.338Z,3.00
2023-02-25T10:21:49.014Z,3.03
2023-02-25T10:24:36.098Z,2.40
2023-02-25T10:27:27.651Z,3.00
2023-02-25T10:30:22.573Z,2.73
2023-02-25T10:32:56.164Z,2.30
2023-02-25T10:35:33.896Z,2.07
2023-02-25T10:38:06.060Z,2.53
2023-02-25T10:40:40.579Z,2.07
2023-02-25T10:43:30.435Z,2.73
2023-02-25T10:46:15.641Z,2.30
2023-02-25T10:48:57.247Z,2.63
2023-02-25T10:51:30.119Z,2.90
2023-02-25T10:54:07.291Z,2.20
2023-02-25T10:56:45.402Z,2.27
2023-02-25T10:59:38.501Z,2.70
2023-02-25T11:02:31.551Z,2.33
2023-02-25T11:05:03.884Z,2.63
2023-02-25T11:07:42.103Z,2.73
2023-02-25T11:10:22.185Z,2.63
2023-02-25T11:12:57.881Z,2.60
2023-02-25T11:15:45.862Z,2.10
2023-02-25T11:18:30.807Z,2.60
2023-02-25T11:21:10.530Z,2.23
2023-02-25T11:23:42.370Z,2.10
2023-02-25T11:26:39.360Z,1.90
2023-02-25T11:29:41.420Z,2.07
2023-02-25T11:32:21.669Z,2.00
2023-02-25T11:35:09.021Z,2.00
2023-02-25T11:37:46.454Z,1.60
2023-02-25T11:40:31.744Z,1.93
2023-02-25T11:43:17.383Z,1.77
2023-02-25T11:45:57.196Z,1.90
2023-02-25T11:48:52.018Z,2.20
2023-02-25T11:51:34.993Z,1.77
2023-02-25T11:54:23.495Z,2.10
2023-02-25T11:57:21.823Z,1.93
2023-02-25T12:00:20.873Z,1.70
2023-02-25T12:03:10.628Z,1.90
2023-02-25T12:06:05.681Z,1.60
2023-02-25T12:08:56.983Z,1.60
2023-02-25T12:11:56.902Z,1.60
2023-02-25T12:15:06.204Z,1.63
2023-02-25T12:18:06.073Z,1.40
2023-02-25T12:21:19.837Z,1.47
2023-02-25T12:24:28.842Z,1.50
2023-02-25T12:27:47.326Z,1.17
2023-02-25T12:31:12.451Z,1.93
2023-02-25T12:33:53.414Z,1.33
2023-02-25T12:36:59.551Z,1.70
2023-02-25T12:39:40.044Z,1.40
2023-02-25T12:42:23.752Z,1.80
2023-02-25T12:45:20.356Z,1.70
2023-02-25T12:48:21.869Z,1.57
2023-02-25T12:51:33.393Z,1.67
2023-02-25T12:54:45.489Z,1.73
2023-02-25T12:57:55.634Z,2.00
2023-02-25T13:01:01.803Z,2.20
2023-02-25T13:04:17.623Z,2.27
2023-02-25T13:07:41.593Z,1.83
2023-02-25T13:10:25.380Z,2.13
2023-02-25T13:13:21.367Z,1.90
2023-02-25T13:16:31.962Z,1.90
2023-02-25T13:19:31.640Z,2.50
2023-02-25T13:22:33.035Z,2.03
2023-02-25T13:25:58.308Z,2.10
2023-02-25T13:29:01.849Z,2.00
2023-02-25T13:32:10.018Z,1.80
2023-02-25T13:35:09.359Z,1.83
2023-02-25T13:38:11.346Z,1.90
2023-02-25T13:41:49.246Z,1.87
2023-02-25T13:44:48.910Z,1.83
2023-02-25T13:47:50.618Z,2.30
2023-02-25T13:50:50.745Z,2.00
2023-02-25T13:53:46.780Z,2.00
2023-02-25T13:56:55.391Z,1.90
2023-02-25T13:59:48.346Z,1.93
2023-02-25T14:02:46.551Z,2.10
2023-02-25T14:05:58.807Z,2.30
2023-02-25T14:09:13.778Z,1.90
2023-02-25T14:12:12.825Z,1.90
2023-02-25T14:15:07.758Z,2.03
2023-02-25T14:18:32.165Z,2.13
2023-02-25T14:21:35.722Z,1.80
2023-02-25T14:24:35.048Z,1.93
2023-02-25T14:27:53.539Z,1.83
2023-02-25T14:30:58.717Z,2.27
2023-02-25T14:33:51.600Z,1.80
2023-02-25T14:37:17.898Z,2.10
2023-02-25T14:39:55.507Z,2.00
2023-02-25T14:42:41.915Z,1.90
2023-02-25T14:45:32.410Z,2.00
2023-02-25T14:48:14.100Z,2.07
2023-02-25T14:51:07.761Z,2.07
2023-02-25T14:54:33.204Z,1.90
2023-02-25T14:57:51.329Z,1.80
2023-02-25T15:00:57.059Z,2.00
2023-02-25T15:03:51.659Z,1.97
2023-02-25T15:06:50.803Z,1.90
2023-02-25T15:09:59.840Z,2.30
2023-02-25T15:12:31.827Z,2.10
2023-02-25T15:15:29.949Z,2.03
2023-02-25T15:19:06.821Z,1.80
2023-02-25T15:21:49.120Z,1.90
2023-02-25T15:24:23.654Z,1.90
2023-02-25T15:26:57.445Z,2.10
2023-02-25T15:29:32.382Z,2.10
2023-02-25T15:32:30.064Z,1.90
2023-02-25T15:35:07.845Z,2.10
2023-02-25T15:37:52.117Z,1.90
2023-02-25T15:40:32.900Z,1.77
2023-02-25T15:43:42.614Z,1.60
2023-02-25T15:46:23.390Z,2.20
2023-02-25T15:49:13.686Z,1.50
2023-02-25T15:51:53.134Z,2.60
2023-02-25T15:54:28.344Z,2.00
2023-02-25T15:57:10.626Z,1.97
2023-02-25T15:59:57.812Z,1.93
2023-02-25T16:02:30.034Z,1.80
2023-02-25T16:05:35.714Z,1.90
2023-02-25T16:08:24.682Z,2.00
2023-02-25T16:10:58.323Z,2.00
2023-02-25T16:13:36.632Z,1.93
2023-02-25T16:16:13.184Z,1.90
2023-02-25T16:18:50.587Z,1.77
2023-02-25T16:21:38.966Z,1.83
2023-02-25T16:24:13.148Z,2.00
2023-02-25T16:27:03.342Z,1.70
2023-02-25T16:29:54.297Z,2.03
2023-02-25T16:32:53.178Z,1.90
2023-02-25T16:35:28.865Z,1.90
2023-02-25T16:39:11.555Z,2.13
2023-02-25T16:41:43.987Z,2.30
2023-02-25T16:44:26.812Z,2.00
2023-02-25T16:46:59.372Z,2.03
2023-02-25T16:49:38.725Z,1.80
2023-02-25T16:52:30.354Z,1.87
2023-02-25T16:55:12.317Z,1.80
2023-02-25T16:58:24.812Z,1.60
2023-02-25T17:01:01.268Z,1.60
2023-02-25T17:03:48.380Z,1.43
2023-02-25T17:06:20.780Z,1.53
2023-02-25T17:08:52.710Z,1.70
2023-02-25T17:11:26.431Z,1.70
2023-02-25T17:14:04.294Z,1.70
2023-02-25T17:16:43.669Z,1.70
2023-02-25T17:19:20.584Z,1.60
2023-02-25T17:21:58.794Z,1.50
2023-02-25T17:24:33.487Z,1.77
2023-02-25T17:27:12.384Z,2.53
2023-02-25T17:29:44.504Z,1.73
2023-02-25T17:32:29.482Z,2.00
2023-02-25T17:35:05.016Z,1.88
2023-02-25T17:37:37.389Z,1.97
2023-02-25T17:40:10.447Z,1.60
2023-02-25T17:42:42.593Z,1.90
2023-02-25T17:45:39.922Z,1.63
2023-02-25T17:48:27.303Z,1.67
2023-02-25T17:51:06.031Z,2.03
2023-02-25T17:53:46.526Z,1.70
2023-02-25T17:56:25.377Z,2.23
2023-02-25T17:59:27.955Z,1.83
2023-02-25T18:02:02.681Z,2.00
2023-02-25T18:04:41.424Z,2.03
2023-02-25T18:07:32.589Z,1.77
2023-02-25T18:10:26.377Z,2.20
2023-02-25T18:13:01.300Z,2.07
2023-02-25T18:15:34.722Z,2.30
2023-02-25T18:18:18.355Z,2.03
2023-02-25T18:20:57.865Z,1.90
2023-02-25T18:23:31.985Z,2.00
2023-02-25T18:26:12.852Z,2.13
2023-02-25T18:28:47.984Z,1.83
2023-02-25T18:31:20.381Z,2.30
2023-02-25T18:33:52.869Z,1.80
2023-02-25T18:36:28.232Z,1.97
2023-02-25T18:39:04.611Z,2.40
2023-02-25T18:41:36.569Z,2.20
2023-02-25T18:44:14.896Z,2.30
2023-02-25T18:46:47.080Z,2.03
2023-02-25T18:49:19.737Z,2.00
2023-02-25T18:51:52.217Z,2.13
2023-02-25T18:54:24.522Z,2.43
2023-02-25T18:56:56.476Z,2.13
2023-02-25T18:59:28.411Z,2.40
2023-02-25T19:02:00.351Z,2.20
2023-02-25T19:04:32.413Z,2.40
2023-02-25T19:07:11.646Z,2.53
2023-02-25T19:09:43.642Z,2.53
2023-02-25T19:12:15.609Z,2.70
2023-02-25T19:15:04.801Z,2.30
2023-02-25T19:17:36.705Z,2.13
2023-02-25T19:20:13.624Z,2.50
2023-02-25T19:22:49.864Z,2.10
2023-02-25T19:25:28.198Z,2.17
2023-02-25T19:28:00.332Z,2.40
2023-02-25T19:30:37.849Z,2.10
2023-02-25T19:33:12.133Z,2.13
2023-02-25T19:35:44.767Z,2.53
2023-02-25T19:38:20.499Z,2.30
2023-02-25T19:40:52.604Z,2.37
2023-02-25T19:43:24.635Z,2.10
2023-02-25T19:45:56.604Z,2.60
2023-02-25T19:48:28.716Z,2.23
2023-02-25T19:51:07.544Z,2.57
2023-02-25T19:53:39.768Z,2.40
2023-02-25T19:56:12.755Z,2.63
2023-02-25T19:58:44.695Z,2.40
2023-02-25T20:01:17.274Z,2.23
2023-02-25T20:03:51.098Z,2.50
2023-02-25T20:06:26.201Z,2.50
2023-02-25T20:09:01.310Z,2.70
2023-02-25T20:11:33.816Z,3.00
2023-02-25T20:14:06.950Z,3.20
2023-02-25T20:16:40.551Z,3.23
2023-02-25T20:19:12.537Z,2.90
2023-02-25T20:21:44.515Z,3.20
2023-02-25T20:24:16.673Z,3.23
2023-02-25T20:26:48.906Z,3.90
2023-02-25T20:29:21.532Z,3.70
2023-02-25T20:31:53.811Z,3.80
2023-02-25T20:34:27.536Z,3.30
2023-02-25T20:37:05.725Z,3.70
2023-02-25T20:39:37.586Z,3.57
2023-02-25T20:42:18.220Z,3.10
2023-02-25T20:44:52.482Z,2.97
2023-02-25T20:47:32.004Z,3.20
2023-02-25T20:50:07.466Z,3.13
2023-02-25T20:52:39.608Z,3.10
2023-02-25T20:55:11.810Z,2.50
2023-02-25T20:57:43.779Z,2.57
2023-02-25T21:00:16.806Z,2.80
2023-02-25T21:02:48.883Z,3.07
2023-02-25T21:05:20.918Z,3.20
2023-02-25T21:07:52.929Z,3.00
2023-02-25T21:10:24.962Z,2.57
2023-02-25T21:12:56.866Z,2.60
2023-02-25T21:15:28.837Z,2.80
2023-02-25T21:18:00.748Z,2.37
2023-02-25T21:20:33.289Z,2.50
2023-02-25T21:23:05.332Z,2.63
2023-02-25T21:25:37.292Z,2.57
2023-02-25T21:28:09.294Z,3.00
2023-02-25T21:30:41.408Z,3.00
2023-02-25T21:33:13.808Z,3.07
2023-02-25T21:35:52.989Z,2.83
2023-02-25T21:38:25.464Z,2.77
2023-02-25T21:41:03.915Z,2.57
2023-02-25T21:43:36.488Z,2.27
2023-02-25T21:46:12.648Z,2.33
2023-02-25T21:48:47.363Z,2.43
2023-02-25T21:51:25.375Z,2.80
2023-02-25T21:54:00.356Z,2.90
2023-02-25T21:56:32.884Z,2.67
2023-02-25T21:59:05.981Z,3.27
2023-02-25T22:01:41.397Z,2.80
2023-02-25T22:04:13.634Z,2.90
2023-02-25T22:06:48.796Z,2.93
2023-02-25T22:09:21.016Z,3.20
2023-02-25T22:11:53.098Z,3.30
2023-02-25T22:14:26.287Z,3.47
2023-02-25T22:16:59.510Z,2.87
2023-02-25T22:19:32.502Z,3.07
2023-02-25T22:22:04.497Z,3.17
2023-02-25T22:24:36.552Z,3.23
2023-02-25T22:27:08.658Z,3.30
2023-02-25T22:29:41.393Z,3.23
2023-02-25T22:32:13.598Z,3.17
2023-02-25T22:34:45.736Z,3.00
2023-02-25T22:37:17.780Z,3.30
2023-02-25T22:39:49.741Z,3.43
2023-02-25T22:42:21.738Z,2.90
2023-02-25T22:44:53.719Z,3.30
2023-02-25T22:47:25.962Z,3.40
2023-02-25T22:49:57.879Z,3.47
2023-02-25T22:52:30.213Z,3.13
2023-02-25T22:55:02.290Z,3.27
2023-02-25T22:57:34.229Z,3.13
2023-02-25T23:00:16.734Z,4.13
2023-02-25T23:02:48.748Z,3.50
2023-02-25T23:05:20.673Z,3.23
2023-02-25T23:07:52.661Z,3.00
2023-02-25T23:10:25.103Z,3.03
2023-02-25T23:13:08.075Z,3.30
2023-02-25T23:15:42.257Z,3.47
2023-02-25T23:18:16.149Z,3.30
2023-02-25T23:20:48.824Z,3.33
2023-02-25T23:23:20.917Z,3.30
2023-02-25T23:25:54.404Z,3.50
2023-02-25T23:28:26.668Z,3.43
2023-02-25T23:30:58.667Z,3.53
2023-02-25T23:33:32.446Z,4.13
2023-02-25T23:36:06.477Z,3.10
2023-02-25T23:38:38.493Z,3.33
2023-02-25T23:41:10.542Z,3.30
2023-02-25T23:43:42.456Z,3.17
2023-02-25T23:46:14.466Z,3.07
2023-02-25T23:48:46.777Z,3.27
2023-02-25T23:51:18.776Z,3.37
2023-02-25T23:53:59.691Z,3.57
2023-02-25T23:56:33.712Z,3.10
2023-02-25T23:59:05.758Z,3.40
